4Z9 weather

Public forecast

Using degrees Fahrenheit for public forecast. Weather courtesy of forecast.io.

Closest aviation weather report (METAR) to Jakolof Bay Airport

Closest report is Seldovia Airport, 5.6 nm (10.3 km) W. Retrieved 2020/08/13 16:53 UTC (46 minutes ago):

PASO 131653Z AUTO 00000KT 9SM CLR 09/09 A2999 RMK AO2 SLP155 T00940089 TSNO

Closest aviation forecast (TAF) to Jakolof Bay Airport

Closest forecast is Homer Airport, 11.7 nm (21.7 km) N. Retrieved 2020/08/13 12:42 UTC (5 hours ago):

TAF PAHO 131139Z 1312/1412 VRB02KT P6SM VCFG SCT005 TEMPO 1312/1315 1 1/2SM BR BKN005 FM131800 25007KT P6SM FEW040 FM140500 VRB03KT P6SM FEW140